createdAt,value
2019-01-29T00:08:50.599Z,4.00
2019-01-29T00:20:35.063Z,4.07
2019-01-29T00:32:19.588Z,3.17
2019-01-29T00:44:04.227Z,3.33
2019-01-29T00:55:48.708Z,3.77
2019-01-29T01:07:34.814Z,12.90
2019-01-29T01:19:19.356Z,15.30
2019-01-29T01:31:03.836Z,19.27
2019-01-29T01:42:48.394Z,4.30
2019-01-29T01:54:32.848Z,6.10
2019-01-29T02:06:17.319Z,6.10
2019-01-29T02:18:02.656Z,4.47
2019-01-29T02:29:47.119Z,3.03
2019-01-29T02:41:32.432Z,4.80
2019-01-29T02:53:18.467Z,12.13
2019-01-29T03:05:07.580Z,4.90
2019-01-29T03:16:52.099Z,4.07
2019-01-29T03:28:37.430Z,3.43
2019-01-29T03:40:27.186Z,3.40
2019-01-29T03:52:11.822Z,4.03
2019-01-29T04:03:56.392Z,4.33
2019-01-29T04:15:40.895Z,4.30
2019-01-29T04:27:25.476Z,3.97
2019-01-29T04:39:11.455Z,3.80
2019-01-29T04:50:55.933Z,4.53
2019-01-29T05:02:40.380Z,4.70
2019-01-29T05:14:24.916Z,7.17
2019-01-29T05:26:09.431Z,4.73
2019-01-29T05:37:53.908Z,5.50
2019-01-29T05:49:38.329Z,4.97
2019-01-29T06:01:22.852Z,4.27
2019-01-29T06:13:08.840Z,5.80
2019-01-29T06:24:53.344Z,5.40
2019-01-29T06:36:37.813Z,5.97
2019-01-29T06:48:22.479Z,7.67
2019-01-29T07:00:26.043Z,7.80
2019-01-29T07:12:10.551Z,7.13
2019-01-29T07:23:56.048Z,4.67
2019-01-29T07:35:40.620Z,6.60
2019-01-29T07:47:25.059Z,17.30
2019-01-29T07:59:09.627Z,27.33
2019-01-29T08:10:55.009Z,25.70
2019-01-29T08:22:39.464Z,9.83
2019-01-29T08:34:23.948Z,22.30
2019-01-29T08:46:08.496Z,39.93
2019-01-29T08:57:53.004Z,20.33
2019-01-29T09:09:37.460Z,22.13
2019-01-29T09:21:22.792Z,15.57
2019-01-29T09:33:07.492Z,6.13
2019-01-29T09:44:52.023Z,6.03
2019-01-29T09:56:36.594Z,5.30
2019-01-29T10:08:21.089Z,5.90
2019-01-29T10:20:07.260Z,5.83
2019-01-29T10:31:53.427Z,5.13
2019-01-29T10:43:37.972Z,6.57
2019-01-29T10:55:22.785Z,5.67
2019-01-29T11:07:07.324Z,10.60
2019-01-29T11:18:51.901Z,6.40
2019-01-29T11:30:36.522Z,6.70
2019-01-29T11:42:21.915Z,5.83
2019-01-29T11:54:06.504Z,5.40
2019-01-29T12:05:51.972Z,6.03
2019-01-29T12:17:36.427Z,5.77
2019-01-29T12:29:21.835Z,9.27
2019-01-29T12:41:06.508Z,7.87
2019-01-29T12:53:03.940Z,10.50
2019-01-29T13:04:48.781Z,8.77
2019-01-29T13:16:34.077Z,8.60
2019-01-29T13:28:18.571Z,15.27
2019-01-29T13:40:03.305Z,7.63
2019-01-29T13:51:47.759Z,5.70
2019-01-29T14:03:32.264Z,7.50
2019-01-29T14:20:26.252Z,6.33
2019-01-29T14:32:10.717Z,8.97
2019-01-29T14:43:55.201Z,10.40
2019-01-29T14:55:40.744Z,9.40
2019-01-29T15:07:30.555Z,8.17
2019-01-29T15:19:13.175Z,8.60
2019-01-29T15:30:58.519Z,10.53
2019-01-29T15:42:42.950Z,8.10
2019-01-29T15:54:27.468Z,10.20
2019-01-29T16:06:11.896Z,7.83
2019-01-29T16:17:56.333Z,16.07
2019-01-29T16:29:42.586Z,13.90
2019-01-29T16:41:27.850Z,24.33
2019-01-29T16:53:12.360Z,22.93
2019-01-29T17:04:56.892Z,26.60
2019-01-29T17:16:41.419Z,16.17
2019-01-29T17:29:41.709Z,85.40
2019-01-29T17:42:19.000Z,29.73
2019-01-29T17:54:03.445Z,35.67
2019-01-29T18:05:48.052Z,38.47
2019-01-29T18:17:32.635Z,36.00
2019-01-29T18:31:11.980Z,41.40
2019-01-29T18:49:26.463Z,44.57
2019-01-29T19:01:47.612Z,55.60
2019-01-29T19:11:52.772Z,90.50
2019-01-29T19:21:57.940Z,62.07
2019-01-29T19:32:05.131Z,51.17
2019-01-29T19:42:10.617Z,69.97
2019-01-29T19:52:16.833Z,71.30
2019-01-29T20:02:22.090Z,78.60
2019-01-29T20:12:27.267Z,79.87
2019-01-29T20:22:32.364Z,93.20
2019-01-29T20:32:38.586Z,80.03
2019-01-29T20:42:43.808Z,101.70
2019-01-29T20:52:49.805Z,95.97
2019-01-29T21:02:54.996Z,97.87
2019-01-29T21:13:00.245Z,82.80
2019-01-29T21:23:05.520Z,108.77
2019-01-29T21:33:11.704Z,106.47
2019-01-29T21:43:16.832Z,81.60
2019-01-29T21:53:25.530Z,82.07
2019-01-29T22:03:32.104Z,89.00
2019-01-29T22:13:37.313Z,71.27
2019-01-29T22:23:42.444Z,63.13
2019-01-29T22:33:47.719Z,53.47
2019-01-29T22:43:52.852Z,44.23
2019-01-29T22:53:59.621Z,24.97
2019-01-29T23:04:34.693Z,26.87
2019-01-29T23:14:39.799Z,22.23
2019-01-29T23:24:45.007Z,28.23
2019-01-29T23:34:50.387Z,30.53
2019-01-29T23:44:55.515Z,24.07
2019-01-29T23:55:01.716Z,25.60
